createdAt,value
2022-09-05T00:03:03.682Z,102079.81
2022-09-05T00:06:02.557Z,102070.97
2022-09-05T00:08:36.951Z,102070.13
2022-09-05T00:11:41.368Z,102072.75
2022-09-05T00:15:14.911Z,102065.16
2022-09-05T00:21:48.206Z,102071.66
2022-09-05T00:24:23.323Z,102075.72
2022-09-05T00:24:33.985Z,102062.09
2022-09-05T00:27:01.784Z,102061.13
2022-09-05T00:31:06.574Z,102072.91
2022-09-05T00:32:44.457Z,102068.66
2022-09-05T00:35:26.512Z,102070.97
2022-09-05T00:37:53.892Z,102072.31
2022-09-05T00:40:31.258Z,102068.06
2022-09-05T00:43:23.978Z,102074.78
2022-09-05T00:45:56.489Z,102071.88
2022-09-05T00:48:35.115Z,102073.97
2022-09-05T00:51:14.775Z,102082.06
2022-09-05T00:54:02.485Z,102078.28
2022-09-05T00:56:54.711Z,102084.91
2022-09-05T00:59:24.583Z,102080.75
2022-09-05T01:01:56.707Z,102081.03
2022-09-05T01:04:29.478Z,102075.19
2022-09-05T01:07:10.725Z,102087.47
2022-09-05T01:10:03.698Z,102082.75
2022-09-05T01:12:55.336Z,102078.28
2022-09-05T01:15:55.072Z,102080.28
2022-09-05T01:18:43.740Z,102082.41
2022-09-05T01:21:18.937Z,102070.59
2022-09-05T01:23:57.748Z,102073.84
2022-09-05T01:26:46.116Z,102065.69
2022-09-05T01:29:27.500Z,102079.31
2022-09-05T01:32:08.715Z,102078.38
2022-09-05T01:35:01.763Z,102077.72
2022-09-05T01:37:40.607Z,102089.09
2022-09-05T01:40:28.669Z,102083.22
2022-09-05T01:43:14.178Z,102094.81
2022-09-05T01:45:55.796Z,102091.03
2022-09-05T01:48:48.022Z,102093.63
2022-09-05T01:51:32.333Z,102098.41
2022-09-05T01:54:25.492Z,102098.22
2022-09-05T01:57:20.930Z,102101.53
2022-09-05T02:00:14.995Z,102100.56
2022-09-05T02:02:53.729Z,102106.78
2022-09-05T02:05:48.675Z,102112.16
2022-09-05T02:08:16.280Z,102117.03
2022-09-05T02:10:55.059Z,102117.09
2022-09-05T02:13:33.813Z,102113.44
2022-09-05T02:16:16.825Z,102123.22
2022-09-05T02:19:06.416Z,102118.56
2022-09-05T02:21:56.309Z,102114.03
2022-09-05T02:24:33.141Z,102115.59
2022-09-05T02:27:45.838Z,102117.16
2022-09-05T02:30:08.722Z,102116.22
2022-09-05T02:32:54.776Z,102125.41
2022-09-05T02:36:06.313Z,102123.03
2022-09-05T02:44:24.199Z,102121.19
2022-09-05T02:45:20.775Z,102119.69
2022-09-05T02:45:24.207Z,102127.59
2022-09-05T02:48:20.000Z,102122.97
2022-09-05T02:57:28.062Z,102130.63
2022-09-05T02:57:38.336Z,102119.91
2022-09-05T02:57:44.455Z,102128.81
2022-09-05T02:59:50.686Z,102124.22
2022-09-05T03:02:28.411Z,102125.09
2022-09-05T03:05:04.493Z,102129.66
2022-09-05T03:08:16.174Z,102123.41
2022-09-05T03:11:20.567Z,102127.13
2022-09-05T03:14:02.542Z,102124.75
2022-09-05T03:16:48.010Z,102117.59
2022-09-05T03:19:46.541Z,102115.84
2022-09-05T03:22:44.429Z,102112.44
2022-09-05T03:25:39.274Z,102106.72
2022-09-05T03:28:27.767Z,102106.50
2022-09-05T03:31:06.663Z,102112.03
2022-09-05T03:34:06.674Z,102112.16
2022-09-05T03:36:47.167Z,102115.38
2022-09-05T03:39:44.920Z,102112.97
2022-09-05T03:42:25.928Z,102110.03
2022-09-05T03:45:07.452Z,102108.47
2022-09-05T03:48:27.817Z,102106.38
2022-09-05T03:57:08.630Z,102103.53
2022-09-05T03:57:11.362Z,102102.53
2022-09-05T03:57:24.063Z,102107.84
2022-09-05T03:59:57.429Z,102110.53
2022-09-05T04:05:28.399Z,102100.84
2022-09-05T04:08:28.023Z,102103.53
2022-09-05T04:08:43.352Z,102103.84
2022-09-05T04:11:14.345Z,102110.44
2022-09-05T04:13:53.837Z,102109.53
2022-09-05T04:16:26.756Z,102099.97
2022-09-05T04:19:18.260Z,102110.25
2022-09-05T04:22:22.099Z,102108.38
2022-09-05T04:24:55.518Z,102111.97
2022-09-05T04:27:31.832Z,102105.91
2022-09-05T04:30:00.862Z,102113.28
2022-09-05T04:32:34.338Z,102114.28
2022-09-05T04:35:35.611Z,102117.56
2022-09-05T04:38:11.813Z,102126.00
2022-09-05T04:40:41.682Z,102118.09
2022-09-05T04:43:36.003Z,102119.75
2022-09-05T04:46:18.877Z,102119.75
2022-09-05T04:48:55.099Z,102133.59
2022-09-05T04:51:44.482Z,102128.31
2022-09-05T04:54:14.336Z,102129.53
2022-09-05T04:56:44.295Z,102127.28
2022-09-05T05:01:03.069Z,102131.53
2022-09-05T05:06:18.911Z,102139.56
2022-09-05T05:06:23.626Z,102127.56
2022-09-05T05:08:43.632Z,102133.09
2022-09-05T05:17:07.567Z,102136.13
2022-09-05T05:17:55.976Z,102138.00
2022-09-05T05:18:13.922Z,102146.81
2022-09-05T05:20:41.905Z,102149.69
2022-09-05T05:23:16.538Z,102152.53
2022-09-05T05:25:48.136Z,102152.78
2022-09-05T05:28:25.026Z,102154.97
2022-09-05T05:31:01.618Z,102151.53
2022-09-05T05:33:32.753Z,102147.34
2022-09-05T05:36:01.616Z,102154.06
2022-09-05T05:38:35.617Z,102146.03
2022-09-05T05:41:12.497Z,102152.94
2022-09-05T05:43:46.086Z,102153.66
2022-09-05T05:46:16.185Z,102161.47
2022-09-05T05:48:48.389Z,102160.03
2022-09-05T05:52:01.417Z,102152.66
2022-09-05T05:54:46.868Z,102152.00
2022-09-05T05:57:26.714Z,102159.38
2022-09-05T06:00:14.814Z,102163.94
2022-09-05T06:03:09.849Z,102171.97
2022-09-05T06:06:27.221Z,102164.56
2022-09-05T06:14:49.297Z,102159.88
2022-09-05T06:14:57.751Z,102165.50
2022-09-05T06:15:45.329Z,102170.41
2022-09-05T06:18:28.169Z,102175.75
2022-09-05T06:22:11.512Z,102169.59
2022-09-05T06:23:57.586Z,102175.66
2022-09-05T06:26:52.206Z,102176.44
2022-09-05T06:29:38.367Z,102182.97
2022-09-05T06:32:34.105Z,102176.41
2022-09-05T06:35:06.769Z,102175.34
2022-09-05T06:38:01.621Z,102166.31
2022-09-05T06:40:37.407Z,102170.16
2022-09-05T06:43:26.038Z,102176.28
2022-09-05T06:46:54.743Z,102188.72
2022-09-05T06:49:39.323Z,102182.69
2022-09-05T06:52:36.567Z,102185.91
2022-09-05T06:55:26.560Z,102182.75
2022-09-05T06:58:21.546Z,102189.72
2022-09-05T07:00:55.624Z,102177.56
2022-09-05T07:03:33.437Z,102184.88
2022-09-05T07:06:46.666Z,102184.53
2022-09-05T07:09:34.848Z,102190.31
2022-09-05T07:12:43.142Z,102194.59
2022-09-05T07:15:28.739Z,102196.78
2022-09-05T07:18:34.389Z,102197.81
2022-09-05T07:21:17.411Z,102200.94
2022-09-05T07:24:09.505Z,102199.34
2022-09-05T07:26:51.745Z,102193.09
2022-09-05T07:29:37.808Z,102185.38
2022-09-05T07:32:07.851Z,102199.34
2022-09-05T07:34:35.545Z,102203.31
2022-09-05T07:37:17.891Z,102200.34
2022-09-05T07:39:50.291Z,102205.56
2022-09-05T07:42:26.247Z,102203.06
2022-09-05T07:44:59.750Z,102204.63
2022-09-05T07:47:32.976Z,102198.19
2022-09-05T07:51:51.274Z,102205.22
2022-09-05T07:56:51.594Z,102199.81
2022-09-05T07:56:59.809Z,102202.41
2022-09-05T07:58:44.324Z,102197.78
2022-09-05T08:01:12.859Z,102203.97
2022-09-05T08:03:41.126Z,102200.03
2022-09-05T08:06:18.420Z,102194.31
2022-09-05T08:10:09.053Z,102198.72
2022-09-05T08:12:15.282Z,102197.13
2022-09-05T08:14:59.421Z,102198.22
2022-09-05T08:17:30.072Z,102201.25
2022-09-05T08:20:35.890Z,102199.56
2022-09-05T08:23:06.377Z,102200.03
2022-09-05T08:25:56.911Z,102204.47
2022-09-05T08:28:25.862Z,102191.38
2022-09-05T08:31:14.521Z,102193.06
2022-09-05T08:33:43.543Z,102188.53
2022-09-05T08:36:35.252Z,102185.66
2022-09-05T08:39:03.789Z,102182.53
2022-09-05T08:41:49.392Z,102173.38
2022-09-05T08:46:36.845Z,102176.91
2022-09-05T08:47:54.603Z,102164.63
2022-09-05T08:50:39.748Z,102158.75
2022-09-05T08:53:47.064Z,102161.34
2022-09-05T08:56:58.540Z,102159.47
2022-09-05T09:00:19.443Z,102153.03
2022-09-05T09:03:29.018Z,102154.28
2022-09-05T09:06:15.109Z,102143.00
2022-09-05T09:08:54.580Z,102151.03
2022-09-05T09:11:44.290Z,102145.34
2022-09-05T09:14:33.043Z,102144.25
2022-09-05T09:17:20.477Z,102141.91
2022-09-05T09:20:06.226Z,102147.16
2022-09-05T09:22:59.512Z,102147.25
2022-09-05T09:25:36.874Z,102159.16
2022-09-05T09:28:47.949Z,102141.38
2022-09-05T09:31:22.771Z,102146.16
2022-09-05T09:34:16.476Z,102141.47
2022-09-05T09:36:52.272Z,102143.78
2022-09-05T09:39:48.194Z,102145.88
2022-09-05T09:42:33.712Z,102146.66
2022-09-05T09:45:53.448Z,102139.22
2022-09-05T09:48:35.190Z,102140.00
2022-09-05T09:51:08.533Z,102141.47
2022-09-05T09:53:46.972Z,102143.09
2022-09-05T09:56:32.670Z,102133.16
2022-09-05T09:59:14.517Z,102138.75
2022-09-05T10:03:40.963Z,102135.63
2022-09-05T10:10:40.340Z,102141.38
2022-09-05T10:10:53.206Z,102134.66
2022-09-05T10:12:14.056Z,102124.97
2022-09-05T10:15:30.456Z,102117.28
2022-09-05T10:18:14.158Z,102115.16
2022-09-05T10:21:16.663Z,102120.75
2022-09-05T10:24:08.277Z,102115.19
2022-09-05T10:26:53.891Z,102107.84
2022-09-05T10:29:52.814Z,102106.81
2022-09-05T10:35:11.616Z,102098.34
2022-09-05T10:35:22.346Z,102100.53
2022-09-05T10:38:11.416Z,102090.88
2022-09-05T10:41:14.545Z,102088.41
2022-09-05T10:43:28.913Z,102086.50
2022-09-05T10:46:01.258Z,102077.75
2022-09-05T10:48:36.682Z,102080.94
2022-09-05T10:51:26.900Z,102079.16
2022-09-05T10:54:24.351Z,102076.31
2022-09-05T10:57:07.735Z,102080.59
2022-09-05T11:01:49.926Z,102070.47
2022-09-05T11:03:00.696Z,102061.75
2022-09-05T11:05:29.310Z,102061.19
2022-09-05T11:08:03.207Z,102049.47
2022-09-05T11:11:08.671Z,102051.47
2022-09-05T11:13:46.123Z,102049.81
2022-09-05T11:16:20.892Z,102041.50
2022-09-05T11:19:04.181Z,102045.00
2022-09-05T11:21:39.357Z,102044.06
2022-09-05T11:24:27.130Z,102047.53
2022-09-05T11:27:25.121Z,102048.97
2022-09-05T11:30:28.404Z,102034.53
2022-09-05T11:39:46.768Z,102049.66
2022-09-05T11:39:53.604Z,102030.91
2022-09-05T11:40:02.338Z,102041.19
2022-09-05T11:42:16.878Z,102044.25
2022-09-05T11:44:53.945Z,102039.00
2022-09-05T11:47:43.641Z,102041.00
2022-09-05T11:50:31.664Z,102046.41
2022-09-05T11:53:20.118Z,102039.69
2022-09-05T11:56:17.754Z,102041.66
2022-09-05T11:59:06.321Z,102040.94
2022-09-05T12:02:24.012Z,102043.72
2022-09-05T12:05:48.857Z,102029.59
2022-09-05T12:08:26.284Z,102035.91
2022-09-05T12:11:34.569Z,102024.47
2022-09-05T12:14:17.097Z,102017.66
2022-09-05T12:16:55.600Z,102015.59
2022-09-05T12:19:47.412Z,102014.50
2022-09-05T12:22:33.834Z,102013.53
2022-09-05T12:26:30.732Z,102010.50
2022-09-05T12:28:51.061Z,102011.38
2022-09-05T12:32:50.322Z,102011.19
2022-09-05T12:36:07.971Z,102011.13
2022-09-05T12:40:51.955Z,102011.63
2022-09-05T12:41:33.575Z,102005.50
2022-09-05T12:44:04.654Z,102001.13
2022-09-05T12:45:47.758Z,101995.47
2022-09-05T12:48:39.360Z,101999.34
2022-09-05T12:51:18.574Z,101995.38
2022-09-05T12:54:32.567Z,101990.34
2022-09-05T12:57:51.693Z,102002.31
2022-09-05T13:03:04.084Z,101992.47
2022-09-05T13:03:12.396Z,101996.00
2022-09-05T13:06:05.247Z,101998.13
2022-09-05T13:08:59.649Z,101992.41
2022-09-05T13:14:47.560Z,101991.00
2022-09-05T13:15:07.884Z,101979.53
2022-09-05T13:17:14.161Z,101981.88
2022-09-05T13:19:45.877Z,101984.25
2022-09-05T13:22:14.870Z,101976.72
2022-09-05T13:24:48.094Z,101965.06
2022-09-05T13:27:17.538Z,101962.81
2022-09-05T13:33:36.395Z,101966.78
2022-09-05T13:37:58.205Z,101978.19
2022-09-05T13:38:02.655Z,101968.31
2022-09-05T13:39:05.436Z,101965.47
2022-09-05T13:41:36.172Z,101967.16
2022-09-05T13:44:25.778Z,101958.03
2022-09-05T13:46:59.273Z,101974.00
2022-09-05T13:49:37.314Z,101966.25
2022-09-05T13:52:13.640Z,101967.75
2022-09-05T13:54:50.271Z,101960.25
2022-09-05T13:57:39.135Z,101959.94
2022-09-05T14:00:27.601Z,101957.13
2022-09-05T14:03:37.763Z,101963.75
2022-09-05T14:06:49.195Z,101953.63
2022-09-05T14:09:39.643Z,101955.88
2022-09-05T14:12:34.377Z,101959.38
2022-09-05T14:15:16.457Z,101956.47
2022-09-05T14:17:57.929Z,101953.44
2022-09-05T14:20:49.527Z,101955.69
2022-09-05T14:23:17.894Z,101956.22
2022-09-05T14:25:52.411Z,101963.34
2022-09-05T14:28:33.915Z,101952.31
2022-09-05T14:37:37.322Z,101952.81
2022-09-05T14:38:01.496Z,101949.59
2022-09-05T14:38:05.642Z,101948.72
2022-09-05T14:41:04.814Z,101939.13
2022-09-05T14:43:57.144Z,101940.03
2022-09-05T14:46:38.504Z,101945.56
2022-09-05T14:49:37.709Z,101935.09
2022-09-05T14:52:17.518Z,101932.75
2022-09-05T15:02:42.187Z,101932.09
2022-09-05T15:02:45.585Z,101932.09
2022-09-05T15:03:12.803Z,101923.16
2022-09-05T15:05:50.365Z,101926.50
2022-09-05T15:11:15.231Z,101917.66
2022-09-05T15:12:19.929Z,101924.25
2022-09-05T15:14:05.733Z,101917.16
2022-09-05T15:16:38.678Z,101912.44
2022-09-05T15:19:09.548Z,101916.16
2022-09-05T15:21:41.659Z,101919.41
2022-09-05T15:24:21.311Z,101915.19
2022-09-05T15:26:59.499Z,101910.88
2022-09-05T15:29:34.506Z,101907.09
2022-09-05T15:32:21.862Z,101901.72
2022-09-05T15:34:52.974Z,101909.66
2022-09-05T15:37:28.821Z,101903.72
2022-09-05T15:40:23.694Z,101902.28
2022-09-05T15:42:57.238Z,101906.75
2022-09-05T15:45:35.565Z,101905.78
2022-09-05T15:48:06.660Z,101899.22
2022-09-05T15:50:46.975Z,101907.84
2022-09-05T15:53:25.284Z,101905.59
2022-09-05T15:55:56.403Z,101901.72
2022-09-05T15:58:27.455Z,101903.50
2022-09-05T16:01:12.907Z,101898.81
2022-09-05T16:06:53.834Z,101890.50
2022-09-05T16:10:38.655Z,101900.94
2022-09-05T16:10:45.940Z,101898.56
2022-09-05T16:12:36.028Z,101902.19
2022-09-05T16:16:51.400Z,101895.88
2022-09-05T16:23:13.779Z,101899.66
2022-09-05T16:23:29.885Z,101905.34
2022-09-05T16:23:49.280Z,101900.53
2022-09-05T16:26:26.187Z,101903.47
2022-09-05T16:29:05.561Z,101913.41
2022-09-05T16:31:42.170Z,101903.25
2022-09-05T16:34:32.099Z,101905.03
2022-09-05T16:37:08.167Z,101901.06
2022-09-05T16:39:38.172Z,101905.97
2022-09-05T16:42:16.205Z,101900.16
2022-09-05T16:44:46.034Z,101904.69
2022-09-05T16:47:22.151Z,101901.75
2022-09-05T16:49:58.794Z,101904.56
2022-09-05T16:52:53.526Z,101894.31
2022-09-05T16:55:55.327Z,101901.94
2022-09-05T16:58:31.701Z,101896.03
2022-09-05T17:01:09.636Z,101899.00
2022-09-05T17:03:36.417Z,101903.88
2022-09-05T17:06:26.194Z,101893.09
2022-09-05T17:09:12.406Z,101898.75
2022-09-05T17:12:00.097Z,101892.41
2022-09-05T17:14:34.485Z,101886.50
2022-09-05T17:17:36.502Z,101882.91
2022-09-05T17:20:09.806Z,101886.94
2022-09-05T17:27:09.129Z,101890.78
2022-09-05T17:29:24.243Z,101886.97
2022-09-05T17:29:32.174Z,101893.63
2022-09-05T17:31:54.866Z,101894.16
2022-09-05T17:34:49.741Z,101903.63
2022-09-05T17:37:25.482Z,101903.53
2022-09-05T17:40:27.080Z,101900.50
2022-09-05T17:43:18.658Z,101905.28
2022-09-05T17:46:12.934Z,101906.69
2022-09-05T17:49:10.171Z,101911.72
2022-09-05T17:51:35.829Z,101910.94
2022-09-05T17:54:08.192Z,101913.66
2022-09-05T17:56:39.729Z,101914.63
2022-09-05T17:59:13.435Z,101924.84
2022-09-05T18:01:44.283Z,101931.50
2022-09-05T18:04:16.419Z,101933.69
2022-09-05T18:06:58.866Z,101935.94
2022-09-05T18:09:36.857Z,101932.03
2022-09-05T18:13:11.963Z,101930.88
2022-09-05T18:15:38.803Z,101929.09
2022-09-05T18:18:10.799Z,101928.66
2022-09-05T18:21:14.626Z,101932.50
2022-09-05T18:23:54.320Z,101941.06
2022-09-05T18:26:26.371Z,101937.50
2022-09-05T18:29:05.915Z,101939.94
2022-09-05T18:31:41.631Z,101939.06
2022-09-05T18:34:24.433Z,101949.25
2022-09-05T18:36:58.575Z,101948.28
2022-09-05T18:39:29.361Z,101950.16
2022-09-05T18:42:26.497Z,101945.59
2022-09-05T18:44:54.476Z,101943.75
2022-09-05T18:47:52.821Z,101946.75
2022-09-05T18:50:28.766Z,101943.84
2022-09-05T18:53:08.836Z,101950.28
2022-09-05T18:56:12.705Z,101951.63
2022-09-05T18:58:34.145Z,101950.75
2022-09-05T19:01:35.999Z,101944.72
2022-09-05T19:04:07.840Z,101938.75
2022-09-05T19:06:45.321Z,101933.59
2022-09-05T19:09:20.389Z,101936.13
2022-09-05T19:11:57.029Z,101933.97
2022-09-05T19:14:41.961Z,101943.97
2022-09-05T19:17:18.333Z,101949.03
2022-09-05T19:20:05.113Z,101947.38
2022-09-05T19:23:11.300Z,101939.22
2022-09-05T19:25:44.391Z,101939.91
2022-09-05T19:36:48.593Z,101934.38
2022-09-05T19:37:12.703Z,101934.84
2022-09-05T19:37:12.859Z,101934.44
2022-09-05T19:47:26.850Z,101936.56
2022-09-05T19:47:35.380Z,101935.78
2022-09-05T19:47:41.359Z,101943.75
2022-09-05T19:48:34.635Z,101940.41
2022-09-05T19:51:17.879Z,101951.97
2022-09-05T19:54:05.008Z,101943.03
2022-09-05T19:56:42.689Z,101938.69
2022-09-05T19:59:39.716Z,101931.41
2022-09-05T20:02:11.944Z,101926.44
2022-09-05T20:04:50.781Z,101928.84
2022-09-05T20:07:28.840Z,101928.09
2022-09-05T20:09:57.168Z,101920.94
2022-09-05T20:12:30.501Z,101932.31
2022-09-05T20:14:58.680Z,101925.97
2022-09-05T20:17:31.565Z,101925.00
2022-09-05T20:20:28.737Z,101929.28
2022-09-05T20:23:02.522Z,101935.16
2022-09-05T20:25:43.574Z,101930.78
2022-09-05T20:28:13.993Z,101929.97
2022-09-05T20:30:44.050Z,101934.13
2022-09-05T20:33:19.421Z,101930.53
2022-09-05T20:39:39.596Z,101929.13
2022-09-05T20:43:19.941Z,101930.63
2022-09-05T20:43:24.586Z,101933.56
2022-09-05T20:44:22.718Z,101932.09
2022-09-05T20:51:41.054Z,101929.84
2022-09-05T20:54:18.230Z,101923.09
2022-09-05T20:54:28.529Z,101926.00
2022-09-05T20:55:41.215Z,101930.28
2022-09-05T20:58:31.174Z,101926.78
2022-09-05T21:01:22.792Z,101923.38
2022-09-05T21:03:56.557Z,101924.44
2022-09-05T21:06:33.931Z,101930.81
2022-09-05T21:09:25.222Z,101938.66
2022-09-05T21:11:54.964Z,101936.66
2022-09-05T21:14:23.681Z,101935.78
2022-09-05T21:16:59.908Z,101922.31
2022-09-05T21:19:35.044Z,101926.16
2022-09-05T21:22:03.591Z,101919.88
2022-09-05T21:24:30.804Z,101922.88
2022-09-05T21:27:23.121Z,101917.81
2022-09-05T21:29:53.001Z,101921.88
2022-09-05T21:32:26.098Z,101918.59
2022-09-05T21:35:34.827Z,101917.34
2022-09-05T21:37:53.231Z,101920.03
2022-09-05T21:40:21.335Z,101921.28
2022-09-05T21:47:37.783Z,101912.13
2022-09-05T21:47:47.848Z,101911.91
2022-09-05T21:48:24.493Z,101907.13
2022-09-05T21:50:52.057Z,101914.28
2022-09-05T21:55:07.986Z,101918.13
2022-09-05T21:59:16.681Z,101908.63
2022-09-05T21:59:33.208Z,101908.34
2022-09-05T22:01:55.773Z,101911.91
2022-09-05T22:04:22.558Z,101910.78
2022-09-05T22:06:50.124Z,101907.50
2022-09-05T22:09:18.334Z,101908.25
2022-09-05T22:11:51.415Z,101912.00
2022-09-05T22:14:23.723Z,101904.34
2022-09-05T22:16:53.610Z,101900.91
2022-09-05T22:19:37.200Z,101908.97
2022-09-05T22:22:16.270Z,101910.91
2022-09-05T22:24:53.495Z,101907.47
2022-09-05T22:27:21.586Z,101905.38
2022-09-05T22:29:50.771Z,101895.16
2022-09-05T22:32:28.569Z,101900.34
2022-09-05T22:35:16.000Z,101899.53
2022-09-05T22:37:55.356Z,101904.06
2022-09-05T22:40:27.393Z,101895.41
2022-09-05T22:42:59.340Z,101903.59
2022-09-05T22:45:26.784Z,101898.88
2022-09-05T22:47:53.691Z,101907.50
2022-09-05T22:50:20.921Z,101899.66
2022-09-05T22:52:47.738Z,101888.75
2022-09-05T22:55:14.470Z,101893.34
2022-09-05T22:57:41.909Z,101889.28
2022-09-05T23:00:09.683Z,101891.75
2022-09-05T23:02:36.708Z,101883.63
2022-09-05T23:05:05.265Z,101888.88
2022-09-05T23:07:32.645Z,101888.47
2022-09-05T23:09:59.415Z,101889.69
2022-09-05T23:12:26.172Z,101891.44
2022-09-05T23:14:52.932Z,101890.50
2022-09-05T23:17:19.781Z,101884.84
2022-09-05T23:19:46.480Z,101894.53
2022-09-05T23:22:13.458Z,101881.66
2022-09-05T23:24:40.139Z,101887.47
2022-09-05T23:27:06.829Z,101884.59
2022-09-05T23:29:33.646Z,101888.59
2022-09-05T23:32:00.345Z,101886.94
2022-09-05T23:34:27.034Z,101880.03
2022-09-05T23:36:53.757Z,101889.66
2022-09-05T23:39:20.466Z,101879.09
2022-09-05T23:41:47.221Z,101889.09
2022-09-05T23:44:13.987Z,101876.63
2022-09-05T23:46:40.696Z,101880.03
2022-09-05T23:49:07.533Z,101873.13
2022-09-05T23:51:34.420Z,101871.16
2022-09-05T23:54:01.095Z,101868.59
2022-09-05T23:56:27.842Z,101870.44
2022-09-05T23:58:54.770Z,101872.72
